Ashland, MO

3:51 AM CDT on August 27, 2014 (GMT -0500)
Columbia Regional | Change Station
CLOSE
Current Station
Airport
Location: Columbia,
Elevation: 899 ft
Nearby Weather Stations
Active Advisory: Heat Advisory Active Notice: Record Report

Elev 899 ft 38.82 °N, 92.22 °W | Updated 57 minutes ago

Clear
Clear
75 °F
Feels Like 75 °F
N
4
Wind Variable Wind from ENE

Today
High -- | Low -- °F
--% Chance of Precip.
Yesterday
High -- | Low -- °F
Precip. -- in
6:33 AM 7:46 PM
Waxing Crescent, 3% visible
Pressure 30.06 in
Visibility 10.0 miles
Clouds Clear
Dew Point 73 °F
Humidity 94%
Rainfall 0.00 in
Snow Depth Not available.
UV 0 out of 12
Pollen 10.60 out of 12
Air Quality Not available.
Flu Activity Not available.
METAR KCOU 270754Z AUTO 06003KT 10SM CLR 24/23 A3009 RMK AO2 SLP180 T02390228 $

More Conditions Fewer Conditions

Pressure 30.06 in
Visibility 10.0 miles
Clouds Clear
Dew Point 73 °F
Humidity 94%
Rainfall 0.00 in
Snow Depth Not available.
UV 0 out of 12
Pollen 10.60 out of 12
Air Quality Not available.
Flu Activity Not available.
METAR KCOU 270754Z AUTO 06003KT 10SM CLR 24/23 A3009 RMK AO2 SLP180 T02390228 $

More Conditions Fewer Conditions

10-Day Weather Forecast

Almanac

Astronomy

Aug. 27, 2014 Rise Set
Actual Time 6:33 AM CDT 7:46 PM CDT
Civil Twilight 6:05 AM CDT 8:14 PM CDT
Nautical Twilight 5:32 AM CDT 8:46 PM CDT
Astronomical Twilight 4:58 AM CDT 9:21 PM CDT
Moon 8:28 AM CDT 8:40 PM CDT
Length of Visible Light 14h 08m
Length of Day
13h 13m
Tomorrow will be 2m 23s shorter.
Waxing Crescent, 3% of the Moon is Illuminated
Today
Waxing Crescent
Sep 2
First Quarter
Sep 8
Full
Sep 15
Last Quarter
Sep 24
New

Today's Extremes

State Highs State Lows

Community

WunderPhotos

Upload Photos

1,747,657 photos uploaded!

Nearby

Snow Depth

Station Depth Elevation
No new snow has been reported.

Earthquake Activity

City Distance Mag. Time & Date
No recent earthquake activity has been reported nearby.
Minimum magnitude displayed is 2.5.

Coastal Water Temperatures

Place Temperature
No Stations Reporting

Nearby Weather Stations